sensor_id;sensor_type;location;lat;lon;timestamp;P1;durP1;ratioP1;P2;durP2;ratioP2
12042;SDS011;6082;49.306;12.862;2022-12-29T00:00:51;1.30;;;1.20;;
12042;SDS011;6082;49.306;12.862;2022-12-29T00:03:17;1.83;;;1.30;;
12042;SDS011;6082;49.306;12.862;2022-12-29T00:05:44;2.03;;;1.27;;
12042;SDS011;6082;49.306;12.862;2022-12-29T00:08:10;1.23;;;0.90;;
12042;SDS011;6082;49.306;12.862;2022-12-29T00:10:36;1.30;;;0.93;;
12042;SDS011;6082;49.306;12.862;2022-12-29T00:13:03;1.83;;;1.10;;
12042;SDS011;6082;49.306;12.862;2022-12-29T00:15:48;1.30;;;1.10;;
12042;SDS011;6082;49.306;12.862;2022-12-29T00:18:14;1.93;;;1.20;;
12042;SDS011;6082;49.306;12.862;2022-12-29T00:20:41;2.50;;;1.20;;
12042;SDS011;6082;49.306;12.862;2022-12-29T00:23:26;2.37;;;1.47;;
12042;SDS011;6082;49.306;12.862;2022-12-29T00:26:14;1.67;;;1.20;;
12042;SDS011;6082;49.306;12.862;2022-12-29T00:29:01;2.47;;;1.27;;
12042;SDS011;6082;49.306;12.862;2022-12-29T00:31:46;1.20;;;1.00;;
12042;SDS011;6082;49.306;12.862;2022-12-29T00:34:31;1.83;;;1.20;;
12042;SDS011;6082;49.306;12.862;2022-12-29T00:37:16;2.27;;;1.30;;
12042;SDS011;6082;49.306;12.862;2022-12-29T00:40:03;1.33;;;1.00;;
12042;SDS011;6082;49.306;12.862;2022-12-29T00:42:51;2.17;;;1.27;;
12042;SDS011;6082;49.306;12.862;2022-12-29T00:45:36;1.70;;;1.30;;
12042;SDS011;6082;49.306;12.862;2022-12-29T00:48:03;1.77;;;1.20;;
12042;SDS011;6082;49.306;12.862;2022-12-29T00:50:29;1.30;;;1.20;;
12042;SDS011;6082;49.306;12.862;2022-12-29T00:52:56;2.30;;;1.30;;
12042;SDS011;6082;49.306;12.862;2022-12-29T00:55:25;1.63;;;1.30;;
12042;SDS011;6082;49.306;12.862;2022-12-29T00:57:54;3.03;;;1.50;;
12042;SDS011;6082;49.306;12.862;2022-12-29T01:00:21;3.17;;;1.70;;
12042;SDS011;6082;49.306;12.862;2022-12-29T01:02:49;2.70;;;1.47;;
12042;SDS011;6082;49.306;12.862;2022-12-29T01:05:16;1.70;;;1.30;;
12042;SDS011;6082;49.306;12.862;2022-12-29T01:07:45;1.63;;;1.20;;
12042;SDS011;6082;49.306;12.862;2022-12-29T01:10:11;1.80;;;1.20;;
12042;SDS011;6082;49.306;12.862;2022-12-29T01:12:42;2.03;;;1.37;;
12042;SDS011;6082;49.306;12.862;2022-12-29T01:15:11;1.80;;;1.50;;
12042;SDS011;6082;49.306;12.862;2022-12-29T01:17:38;2.17;;;1.20;;
12042;SDS011;6082;49.306;12.862;2022-12-29T01:20:04;1.67;;;1.40;;
12042;SDS011;6082;49.306;12.862;2022-12-29T01:22:31;2.00;;;1.53;;
12042;SDS011;6082;49.306;12.862;2022-12-29T01:24:58;2.30;;;1.40;;
12042;SDS011;6082;49.306;12.862;2022-12-29T01:27:27;1.30;;;1.20;;
12042;SDS011;6082;49.306;12.862;2022-12-29T01:29:54;1.80;;;1.30;;
12042;SDS011;6082;49.306;12.862;2022-12-29T01:32:20;2.10;;;1.37;;
12042;SDS011;6082;49.306;12.862;2022-12-29T01:34:47;2.13;;;1.10;;
12042;SDS011;6082;49.306;12.862;2022-12-29T01:37:13;2.03;;;1.00;;
12042;SDS011;6082;49.306;12.862;2022-12-29T01:39:39;1.70;;;1.40;;
12042;SDS011;6082;49.306;12.862;2022-12-29T01:42:09;2.23;;;1.57;;
12042;SDS011;6082;49.306;12.862;2022-12-29T01:44:55;1.77;;;1.43;;
12042;SDS011;6082;49.306;12.862;2022-12-29T01:49:56;2.97;;;1.40;;
12042;SDS011;6082;49.306;12.862;2022-12-29T01:52:24;1.63;;;1.33;;
12042;SDS011;6082;49.306;12.862;2022-12-29T01:54:53;2.23;;;1.47;;
12042;SDS011;6082;49.306;12.862;2022-12-29T01:57:21;1.53;;;1.00;;
12042;SDS011;6082;49.306;12.862;2022-12-29T01:59:50;2.63;;;1.43;;
12042;SDS011;6082;49.306;12.862;2022-12-29T02:02:18;1.80;;;1.17;;
12042;SDS011;6082;49.306;12.862;2022-12-29T02:04:47;1.63;;;1.43;;
12042;SDS011;6082;49.306;12.862;2022-12-29T02:07:15;3.53;;;1.23;;
12042;SDS011;6082;49.306;12.862;2022-12-29T02:09:43;2.27;;;1.10;;
12042;SDS011;6082;49.306;12.862;2022-12-29T02:12:11;2.50;;;1.30;;
12042;SDS011;6082;49.306;12.862;2022-12-29T02:14:38;1.60;;;1.20;;
12042;SDS011;6082;49.306;12.862;2022-12-29T02:17:24;2.03;;;1.20;;
12042;SDS011;6082;49.306;12.862;2022-12-29T02:20:06;1.33;;;1.07;;
12042;SDS011;6082;49.306;12.862;2022-12-29T02:23:05;2.30;;;1.27;;
12042;SDS011;6082;49.306;12.862;2022-12-29T02:31:18;1.10;;;0.77;;
12042;SDS011;6082;49.306;12.862;2022-12-29T02:36:39;2.17;;;1.10;;
12042;SDS011;6082;49.306;12.862;2022-12-29T02:39:21;0.87;;;0.80;;
12042;SDS011;6082;49.306;12.862;2022-12-29T02:44:38;1.37;;;1.10;;
12042;SDS011;6082;49.306;12.862;2022-12-29T02:52:39;2.00;;;1.20;;
12042;SDS011;6082;49.306;12.862;2022-12-29T02:55:06;1.27;;;0.93;;
12042;SDS011;6082;49.306;12.862;2022-12-29T02:57:34;1.67;;;1.53;;
12042;SDS011;6082;49.306;12.862;2022-12-29T03:00:02;1.10;;;0.80;;
12042;SDS011;6082;49.306;12.862;2022-12-29T03:02:31;2.63;;;1.20;;
12042;SDS011;6082;49.306;12.862;2022-12-29T03:07:39;0.97;;;0.87;;
12042;SDS011;6082;49.306;12.862;2022-12-29T03:12:56;4.50;;;1.60;;
12042;SDS011;6082;49.306;12.862;2022-12-29T03:18:50;2.00;;;1.00;;
12042;SDS011;6082;49.306;12.862;2022-12-29T03:23:46;1.27;;;1.17;;
12042;SDS011;6082;49.306;12.862;2022-12-29T03:26:16;2.73;;;1.20;;
12042;SDS011;6082;49.306;12.862;2022-12-29T03:28:46;1.30;;;1.20;;
12042;SDS011;6082;49.306;12.862;2022-12-29T03:31:13;2.23;;;1.30;;
12042;SDS011;6082;49.306;12.862;2022-12-29T03:33:40;2.17;;;1.10;;
12042;SDS011;6082;49.306;12.862;2022-12-29T03:36:08;1.57;;;1.00;;
12042;SDS011;6082;49.306;12.862;2022-12-29T03:41:10;1.60;;;1.20;;
12042;SDS011;6082;49.306;12.862;2022-12-29T03:43:37;2.20;;;1.13;;
12042;SDS011;6082;49.306;12.862;2022-12-29T03:46:06;1.50;;;1.10;;
12042;SDS011;6082;49.306;12.862;2022-12-29T03:48:32;2.53;;;1.30;;
12042;SDS011;6082;49.306;12.862;2022-12-29T03:50:59;1.00;;;0.90;;
12042;SDS011;6082;49.306;12.862;2022-12-29T03:53:25;1.10;;;0.90;;
12042;SDS011;6082;49.306;12.862;2022-12-29T03:55:54;3.47;;;1.10;;
12042;SDS011;6082;49.306;12.862;2022-12-29T03:58:21;1.30;;;1.00;;
12042;SDS011;6082;49.306;12.862;2022-12-29T04:00:50;1.70;;;1.10;;
12042;SDS011;6082;49.306;12.862;2022-12-29T04:03:17;1.60;;;1.10;;
12042;SDS011;6082;49.306;12.862;2022-12-29T04:05:43;1.27;;;1.10;;
12042;SDS011;6082;49.306;12.862;2022-12-29T04:08:10;1.10;;;0.83;;
12042;SDS011;6082;49.306;12.862;2022-12-29T04:10:36;1.63;;;1.27;;
12042;SDS011;6082;49.306;12.862;2022-12-29T04:13:02;1.60;;;1.07;;
12042;SDS011;6082;49.306;12.862;2022-12-29T04:15:29;1.53;;;1.20;;
12042;SDS011;6082;49.306;12.862;2022-12-29T04:17:55;1.67;;;1.10;;
12042;SDS011;6082;49.306;12.862;2022-12-29T04:20:22;1.07;;;0.80;;
12042;SDS011;6082;49.306;12.862;2022-12-29T04:23:07;0.93;;;0.80;;
12042;SDS011;6082;49.306;12.862;2022-12-29T04:25:34;2.47;;;1.30;;
12042;SDS011;6082;49.306;12.862;2022-12-29T04:28:00;1.50;;;1.00;;
12042;SDS011;6082;49.306;12.862;2022-12-29T04:30:27;1.60;;;1.00;;
12042;SDS011;6082;49.306;12.862;2022-12-29T04:32:53;1.77;;;1.20;;
12042;SDS011;6082;49.306;12.862;2022-12-29T04:35:22;1.20;;;0.80;;
12042;SDS011;6082;49.306;12.862;2022-12-29T04:37:49;1.43;;;1.20;;
12042;SDS011;6082;49.306;12.862;2022-12-29T04:40:15;1.97;;;1.10;;
12042;SDS011;6082;49.306;12.862;2022-12-29T04:42:42;3.50;;;1.33;;
12042;SDS011;6082;49.306;12.862;2022-12-29T04:45:08;1.10;;;1.00;;
12042;SDS011;6082;49.306;12.862;2022-12-29T04:47:35;2.30;;;1.10;;
12042;SDS011;6082;49.306;12.862;2022-12-29T04:50:02;1.90;;;1.30;;
12042;SDS011;6082;49.306;12.862;2022-12-29T04:52:29;2.77;;;1.03;;
12042;SDS011;6082;49.306;12.862;2022-12-29T04:54:55;1.60;;;1.00;;
12042;SDS011;6082;49.306;12.862;2022-12-29T04:57:21;1.10;;;1.00;;
12042;SDS011;6082;49.306;12.862;2022-12-29T04:59:48;1.27;;;0.97;;
12042;SDS011;6082;49.306;12.862;2022-12-29T05:02:15;1.10;;;1.00;;
12042;SDS011;6082;49.306;12.862;2022-12-29T05:04:44;1.23;;;1.10;;
12042;SDS011;6082;49.306;12.862;2022-12-29T05:07:12;2.13;;;1.40;;
12042;SDS011;6082;49.306;12.862;2022-12-29T05:09:38;1.33;;;1.10;;
12042;SDS011;6082;49.306;12.862;2022-12-29T05:12:05;4.80;;;1.00;;
12042;SDS011;6082;49.306;12.862;2022-12-29T05:14:32;1.70;;;1.00;;
12042;SDS011;6082;49.306;12.862;2022-12-29T05:16:58;1.53;;;0.87;;
12042;SDS011;6082;49.306;12.862;2022-12-29T05:19:25;1.87;;;1.00;;
12042;SDS011;6082;49.306;12.862;2022-12-29T05:21:51;0.93;;;0.80;;
12042;SDS011;6082;49.306;12.862;2022-12-29T05:24:18;1.40;;;1.00;;
12042;SDS011;6082;49.306;12.862;2022-12-29T05:26:44;1.77;;;1.00;;
12042;SDS011;6082;49.306;12.862;2022-12-29T05:29:10;1.83;;;1.10;;
12042;SDS011;6082;49.306;12.862;2022-12-29T05:31:37;1.83;;;0.90;;
12042;SDS011;6082;49.306;12.862;2022-12-29T05:34:03;1.53;;;1.30;;
12042;SDS011;6082;49.306;12.862;2022-12-29T05:36:30;2.60;;;1.13;;
12042;SDS011;6082;49.306;12.862;2022-12-29T05:38:56;2.50;;;1.20;;
12042;SDS011;6082;49.306;12.862;2022-12-29T05:41:23;2.10;;;1.20;;
12042;SDS011;6082;49.306;12.862;2022-12-29T05:43:49;2.80;;;1.10;;
12042;SDS011;6082;49.306;12.862;2022-12-29T05:46:16;1.33;;;1.20;;
12042;SDS011;6082;49.306;12.862;2022-12-29T05:48:42;1.60;;;1.30;;
12042;SDS011;6082;49.306;12.862;2022-12-29T05:51:08;2.03;;;1.10;;
12042;SDS011;6082;49.306;12.862;2022-12-29T05:53:35;1.27;;;1.07;;
12042;SDS011;6082;49.306;12.862;2022-12-29T05:56:01;1.23;;;1.13;;
12042;SDS011;6082;49.306;12.862;2022-12-29T05:58:30;2.10;;;1.20;;
12042;SDS011;6082;49.306;12.862;2022-12-29T06:00:57;2.27;;;1.43;;
12042;SDS011;6082;49.306;12.862;2022-12-29T06:03:23;2.33;;;1.53;;
12042;SDS011;6082;49.306;12.862;2022-12-29T06:05:50;1.97;;;1.20;;
12042;SDS011;6082;49.306;12.862;2022-12-29T06:08:16;1.30;;;1.07;;
12042;SDS011;6082;49.306;12.862;2022-12-29T06:10:43;2.83;;;1.30;;
12042;SDS011;6082;49.306;12.862;2022-12-29T06:13:12;1.13;;;1.03;;
12042;SDS011;6082;49.306;12.862;2022-12-29T06:15:39;2.83;;;1.43;;
12042;SDS011;6082;49.306;12.862;2022-12-29T06:18:06;1.57;;;0.83;;
12042;SDS011;6082;49.306;12.862;2022-12-29T06:20:32;1.17;;;1.07;;
12042;SDS011;6082;49.306;12.862;2022-12-29T06:22:59;1.37;;;1.00;;
12042;SDS011;6082;49.306;12.862;2022-12-29T06:25:25;2.00;;;1.20;;
12042;SDS011;6082;49.306;12.862;2022-12-29T06:27:52;2.27;;;1.10;;
12042;SDS011;6082;49.306;12.862;2022-12-29T06:30:21;1.43;;;1.00;;
12042;SDS011;6082;49.306;12.862;2022-12-29T06:32:47;1.77;;;1.20;;
12042;SDS011;6082;49.306;12.862;2022-12-29T06:35:14;3.00;;;1.63;;
12042;SDS011;6082;49.306;12.862;2022-12-29T06:37:42;1.97;;;1.20;;
12042;SDS011;6082;49.306;12.862;2022-12-29T06:40:10;2.40;;;1.07;;
12042;SDS011;6082;49.306;12.862;2022-12-29T06:42:37;1.70;;;1.27;;
12042;SDS011;6082;49.306;12.862;2022-12-29T06:45:03;2.70;;;1.40;;
12042;SDS011;6082;49.306;12.862;2022-12-29T06:47:30;2.80;;;1.97;;
12042;SDS011;6082;49.306;12.862;2022-12-29T06:49:59;8.37;;;5.13;;
12042;SDS011;6082;49.306;12.862;2022-12-29T06:52:26;3.57;;;2.60;;
12042;SDS011;6082;49.306;12.862;2022-12-29T06:54:54;3.07;;;1.87;;
12042;SDS011;6082;49.306;12.862;2022-12-29T06:57:21;1.90;;;1.70;;
12042;SDS011;6082;49.306;12.862;2022-12-29T06:59:47;2.13;;;1.40;;
12042;SDS011;6082;49.306;12.862;2022-12-29T07:02:14;3.17;;;1.60;;
12042;SDS011;6082;49.306;12.862;2022-12-29T07:04:43;1.27;;;1.13;;
12042;SDS011;6082;49.306;12.862;2022-12-29T07:07:09;1.80;;;1.40;;
12042;SDS011;6082;49.306;12.862;2022-12-29T07:09:36;2.90;;;1.93;;
12042;SDS011;6082;49.306;12.862;2022-12-29T07:12:02;4.97;;;3.20;;
12042;SDS011;6082;49.306;12.862;2022-12-29T07:14:29;4.37;;;2.67;;
12042;SDS011;6082;49.306;12.862;2022-12-29T07:16:56;5.43;;;2.93;;
12042;SDS011;6082;49.306;12.862;2022-12-29T07:19:22;6.27;;;2.50;;
12042;SDS011;6082;49.306;12.862;2022-12-29T07:21:48;3.90;;;2.40;;
12042;SDS011;6082;49.306;12.862;2022-12-29T07:24:15;5.53;;;3.07;;
12042;SDS011;6082;49.306;12.862;2022-12-29T07:26:41;3.27;;;2.07;;
12042;SDS011;6082;49.306;12.862;2022-12-29T07:29:08;2.10;;;1.53;;
12042;SDS011;6082;49.306;12.862;2022-12-29T07:31:34;2.03;;;1.50;;
12042;SDS011;6082;49.306;12.862;2022-12-29T07:34:01;3.13;;;1.73;;
12042;SDS011;6082;49.306;12.862;2022-12-29T07:36:27;3.20;;;2.07;;
12042;SDS011;6082;49.306;12.862;2022-12-29T07:38:56;4.40;;;2.97;;
12042;SDS011;6082;49.306;12.862;2022-12-29T07:41:23;3.50;;;2.70;;
12042;SDS011;6082;49.306;12.862;2022-12-29T07:43:49;3.30;;;2.40;;
12042;SDS011;6082;49.306;12.862;2022-12-29T07:46:16;5.27;;;2.80;;
12042;SDS011;6082;49.306;12.862;2022-12-29T07:48:43;4.90;;;2.83;;
12042;SDS011;6082;49.306;12.862;2022-12-29T07:51:09;5.17;;;3.40;;
12042;SDS011;6082;49.306;12.862;2022-12-29T07:53:36;5.33;;;3.40;;
12042;SDS011;6082;49.306;12.862;2022-12-29T07:56:02;6.97;;;4.27;;
12042;SDS011;6082;49.306;12.862;2022-12-29T07:58:31;3.60;;;2.67;;
12042;SDS011;6082;49.306;12.862;2022-12-29T08:01:00;4.30;;;2.60;;
12042;SDS011;6082;49.306;12.862;2022-12-29T08:03:27;3.40;;;2.40;;
12042;SDS011;6082;49.306;12.862;2022-12-29T08:05:53;3.80;;;2.00;;
12042;SDS011;6082;49.306;12.862;2022-12-29T08:08:23;2.53;;;1.80;;
12042;SDS011;6082;49.306;12.862;2022-12-29T08:10:52;2.90;;;1.90;;
12042;SDS011;6082;49.306;12.862;2022-12-29T08:13:19;5.13;;;3.50;;
12042;SDS011;6082;49.306;12.862;2022-12-29T08:15:45;3.37;;;2.63;;
12042;SDS011;6082;49.306;12.862;2022-12-29T08:18:12;2.80;;;1.73;;
12042;SDS011;6082;49.306;12.862;2022-12-29T08:20:38;2.30;;;1.83;;
12042;SDS011;6082;49.306;12.862;2022-12-29T08:23:05;3.70;;;2.00;;
12042;SDS011;6082;49.306;12.862;2022-12-29T08:25:31;3.00;;;2.33;;
12042;SDS011;6082;49.306;12.862;2022-12-29T08:28:00;2.10;;;1.80;;
12042;SDS011;6082;49.306;12.862;2022-12-29T08:30:30;2.57;;;1.97;;
12042;SDS011;6082;49.306;12.862;2022-12-29T08:32:59;2.90;;;2.17;;
12042;SDS011;6082;49.306;12.862;2022-12-29T08:35:26;3.00;;;2.03;;
12042;SDS011;6082;49.306;12.862;2022-12-29T08:37:52;2.27;;;1.50;;
12042;SDS011;6082;49.306;12.862;2022-12-29T08:40:19;1.60;;;1.10;;
12042;SDS011;6082;49.306;12.862;2022-12-29T08:42:45;3.47;;;1.60;;
12042;SDS011;6082;49.306;12.862;2022-12-29T08:45:12;2.23;;;1.50;;
12042;SDS011;6082;49.306;12.862;2022-12-29T08:47:39;2.33;;;1.40;;
12042;SDS011;6082;49.306;12.862;2022-12-29T08:50:05;1.77;;;1.23;;
12042;SDS011;6082;49.306;12.862;2022-12-29T08:52:32;1.03;;;0.90;;
12042;SDS011;6082;49.306;12.862;2022-12-29T08:55:01;1.90;;;0.97;;
12042;SDS011;6082;49.306;12.862;2022-12-29T08:57:27;2.27;;;1.30;;
12042;SDS011;6082;49.306;12.862;2022-12-29T08:59:54;2.20;;;1.63;;
12042;SDS011;6082;49.306;12.862;2022-12-29T09:02:21;1.83;;;0.93;;
12042;SDS011;6082;49.306;12.862;2022-12-29T09:04:47;3.00;;;1.50;;
12042;SDS011;6082;49.306;12.862;2022-12-29T09:07:14;1.73;;;1.20;;
12042;SDS011;6082;49.306;12.862;2022-12-29T09:09:40;2.40;;;1.33;;
12042;SDS011;6082;49.306;12.862;2022-12-29T09:12:07;7.57;;;4.63;;
12042;SDS011;6082;49.306;12.862;2022-12-29T09:14:33;3.50;;;1.70;;
12042;SDS011;6082;49.306;12.862;2022-12-29T09:17:00;2.90;;;1.43;;
12042;SDS011;6082;49.306;12.862;2022-12-29T09:19:45;4.03;;;2.90;;
12042;SDS011;6082;49.306;12.862;2022-12-29T09:22:11;3.50;;;2.20;;
12042;SDS011;6082;49.306;12.862;2022-12-29T09:24:38;6.63;;;3.30;;
12042;SDS011;6082;49.306;12.862;2022-12-29T09:27:04;2.40;;;1.90;;
12042;SDS011;6082;49.306;12.862;2022-12-29T09:29:33;2.90;;;1.67;;
12042;SDS011;6082;49.306;12.862;2022-12-29T09:32:00;1.83;;;1.30;;
12042;SDS011;6082;49.306;12.862;2022-12-29T09:34:28;3.03;;;1.70;;
12042;SDS011;6082;49.306;12.862;2022-12-29T09:36:55;2.10;;;1.40;;
12042;SDS011;6082;49.306;12.862;2022-12-29T09:39:22;3.37;;;1.73;;
12042;SDS011;6082;49.306;12.862;2022-12-29T09:44:48;4.60;;;2.20;;
12042;SDS011;6082;49.306;12.862;2022-12-29T09:47:17;4.43;;;2.23;;
12042;SDS011;6082;49.306;12.862;2022-12-29T09:49:56;4.30;;;2.10;;
12042;SDS011;6082;49.306;12.862;2022-12-29T09:52:28;6.57;;;3.23;;
12042;SDS011;6082;49.306;12.862;2022-12-29T09:54:56;9.13;;;5.07;;
12042;SDS011;6082;49.306;12.862;2022-12-29T10:00:17;4.40;;;2.43;;
12042;SDS011;6082;49.306;12.862;2022-12-29T10:02:46;7.50;;;3.27;;
12042;SDS011;6082;49.306;12.862;2022-12-29T10:07:52;3.20;;;1.80;;
12042;SDS011;6082;49.306;12.862;2022-12-29T10:15:40;2.63;;;1.90;;
12042;SDS011;6082;49.306;12.862;2022-12-29T10:18:29;3.37;;;1.90;;
12042;SDS011;6082;49.306;12.862;2022-12-29T10:21:17;2.80;;;1.40;;
12042;SDS011;6082;49.306;12.862;2022-12-29T10:23:50;2.27;;;1.67;;
12042;SDS011;6082;49.306;12.862;2022-12-29T10:26:18;1.47;;;1.10;;
12042;SDS011;6082;49.306;12.862;2022-12-29T10:28:50;1.87;;;1.50;;
12042;SDS011;6082;49.306;12.862;2022-12-29T10:31:19;2.17;;;1.17;;
12042;SDS011;6082;49.306;12.862;2022-12-29T10:33:48;2.93;;;1.20;;
12042;SDS011;6082;49.306;12.862;2022-12-29T10:36:17;2.73;;;2.10;;
12042;SDS011;6082;49.306;12.862;2022-12-29T10:38:47;5.57;;;1.73;;
12042;SDS011;6082;49.306;12.862;2022-12-29T10:41:23;3.73;;;1.30;;
12042;SDS011;6082;49.306;12.862;2022-12-29T10:43:53;2.63;;;1.40;;
12042;SDS011;6082;49.306;12.862;2022-12-29T10:46:21;2.47;;;1.37;;
12042;SDS011;6082;49.306;12.862;2022-12-29T10:48:49;3.80;;;1.83;;
12042;SDS011;6082;49.306;12.862;2022-12-29T10:51:35;3.97;;;1.40;;
12042;SDS011;6082;49.306;12.862;2022-12-29T10:56:38;5.27;;;1.90;;
12042;SDS011;6082;49.306;12.862;2022-12-29T11:02:05;1.53;;;1.03;;
12042;SDS011;6082;49.306;12.862;2022-12-29T11:05:40;1.37;;;0.93;;
12042;SDS011;6082;49.306;12.862;2022-12-29T11:07:35;1.40;;;1.00;;
12042;SDS011;6082;49.306;12.862;2022-12-29T11:13:11;2.60;;;1.30;;
12042;SDS011;6082;49.306;12.862;2022-12-29T11:15:45;1.37;;;0.93;;
12042;SDS011;6082;49.306;12.862;2022-12-29T11:18:23;1.60;;;1.30;;
12042;SDS011;6082;49.306;12.862;2022-12-29T11:20:51;1.80;;;1.50;;
12042;SDS011;6082;49.306;12.862;2022-12-29T11:28:39;2.00;;;1.20;;
12042;SDS011;6082;49.306;12.862;2022-12-29T11:31:06;3.97;;;1.73;;
12042;SDS011;6082;49.306;12.862;2022-12-29T11:33:34;2.30;;;1.53;;
12042;SDS011;6082;49.306;12.862;2022-12-29T11:36:02;3.20;;;1.20;;
12042;SDS011;6082;49.306;12.862;2022-12-29T11:38:34;2.67;;;1.27;;
12042;SDS011;6082;49.306;12.862;2022-12-29T11:41:01;1.90;;;1.23;;
12042;SDS011;6082;49.306;12.862;2022-12-29T11:43:37;2.90;;;1.67;;
12042;SDS011;6082;49.306;12.862;2022-12-29T11:46:04;3.20;;;1.90;;
12042;SDS011;6082;49.306;12.862;2022-12-29T11:48:37;4.50;;;1.73;;
12042;SDS011;6082;49.306;12.862;2022-12-29T11:51:04;1.20;;;1.10;;
12042;SDS011;6082;49.306;12.862;2022-12-29T11:53:35;2.20;;;1.40;;
12042;SDS011;6082;49.306;12.862;2022-12-29T11:56:08;3.50;;;1.40;;
12042;SDS011;6082;49.306;12.862;2022-12-29T11:58:36;1.77;;;1.40;;
12042;SDS011;6082;49.306;12.862;2022-12-29T12:03:32;4.00;;;1.30;;
12042;SDS011;6082;49.306;12.862;2022-12-29T12:06:01;3.37;;;1.33;;
12042;SDS011;6082;49.306;12.862;2022-12-29T12:08:47;2.00;;;1.50;;
12042;SDS011;6082;49.306;12.862;2022-12-29T12:11:32;1.40;;;1.10;;
12042;SDS011;6082;49.306;12.862;2022-12-29T12:14:07;2.17;;;1.03;;
12042;SDS011;6082;49.306;12.862;2022-12-29T12:16:41;1.20;;;1.10;;
12042;SDS011;6082;49.306;12.862;2022-12-29T12:21:56;1.53;;;1.13;;
12042;SDS011;6082;49.306;12.862;2022-12-29T12:27:33;3.80;;;1.67;;
12042;SDS011;6082;49.306;12.862;2022-12-29T12:32:48;4.10;;;2.03;;
12042;SDS011;6082;49.306;12.862;2022-12-29T12:35:25;3.73;;;1.73;;
12042;SDS011;6082;49.306;12.862;2022-12-29T12:40:34;5.33;;;1.90;;
12042;SDS011;6082;49.306;12.862;2022-12-29T12:50:56;1.60;;;1.10;;
12042;SDS011;6082;49.306;12.862;2022-12-29T12:53:37;2.27;;;1.43;;
12042;SDS011;6082;49.306;12.862;2022-12-29T12:58:41;1.77;;;1.17;;
12042;SDS011;6082;49.306;12.862;2022-12-29T13:06:33;2.10;;;1.30;;
12042;SDS011;6082;49.306;12.862;2022-12-29T13:09:21;1.33;;;1.03;;
12042;SDS011;6082;49.306;12.862;2022-12-29T13:12:14;1.87;;;1.20;;
12042;SDS011;6082;49.306;12.862;2022-12-29T13:23:05;1.60;;;1.20;;
12042;SDS011;6082;49.306;12.862;2022-12-29T13:25:36;4.20;;;1.20;;
12042;SDS011;6082;49.306;12.862;2022-12-29T13:33:23;3.57;;;2.13;;
12042;SDS011;6082;49.306;12.862;2022-12-29T13:38:34;6.97;;;4.40;;
12042;SDS011;6082;49.306;12.862;2022-12-29T13:41:05;3.80;;;2.80;;
12042;SDS011;6082;49.306;12.862;2022-12-29T13:43:34;1.90;;;1.70;;
12042;SDS011;6082;49.306;12.862;2022-12-29T13:46:05;2.37;;;1.53;;
12042;SDS011;6082;49.306;12.862;2022-12-29T13:48:53;2.50;;;1.30;;
12042;SDS011;6082;49.306;12.862;2022-12-29T13:51:24;3.17;;;1.37;;
12042;SDS011;6082;49.306;12.862;2022-12-29T13:53:56;2.57;;;1.40;;
12042;SDS011;6082;49.306;12.862;2022-12-29T13:56:31;4.37;;;1.30;;
12042;SDS011;6082;49.306;12.862;2022-12-29T14:01:55;1.90;;;1.43;;
12042;SDS011;6082;49.306;12.862;2022-12-29T14:04:26;1.87;;;1.40;;
12042;SDS011;6082;49.306;12.862;2022-12-29T14:07:00;2.30;;;2.10;;
12042;SDS011;6082;49.306;12.862;2022-12-29T14:11:56;2.60;;;1.70;;
12042;SDS011;6082;49.306;12.862;2022-12-29T14:14:24;2.40;;;1.60;;
12042;SDS011;6082;49.306;12.862;2022-12-29T14:16:51;1.40;;;1.10;;
12042;SDS011;6082;49.306;12.862;2022-12-29T14:19:20;2.27;;;1.30;;
12042;SDS011;6082;49.306;12.862;2022-12-29T14:21:52;1.80;;;1.10;;
12042;SDS011;6082;49.306;12.862;2022-12-29T14:24:42;1.50;;;1.10;;
12042;SDS011;6082;49.306;12.862;2022-12-29T14:34:55;3.33;;;2.30;;
12042;SDS011;6082;49.306;12.862;2022-12-29T14:42:39;4.93;;;2.70;;
12042;SDS011;6082;49.306;12.862;2022-12-29T14:47:40;5.53;;;2.93;;
12042;SDS011;6082;49.306;12.862;2022-12-29T14:50:11;5.87;;;2.10;;
12042;SDS011;6082;49.306;12.862;2022-12-29T14:57:44;2.70;;;1.80;;
12042;SDS011;6082;49.306;12.862;2022-12-29T15:00:18;14.73;;;9.37;;
12042;SDS011;6082;49.306;12.862;2022-12-29T15:02:54;6.83;;;4.77;;
12042;SDS011;6082;49.306;12.862;2022-12-29T15:05:44;4.20;;;2.60;;
12042;SDS011;6082;49.306;12.862;2022-12-29T15:08:12;4.13;;;2.83;;
12042;SDS011;6082;49.306;12.862;2022-12-29T15:10:47;3.70;;;2.50;;
12042;SDS011;6082;49.306;12.862;2022-12-29T15:13:20;2.80;;;2.00;;
12042;SDS011;6082;49.306;12.862;2022-12-29T15:15:49;2.43;;;2.10;;
12042;SDS011;6082;49.306;12.862;2022-12-29T15:18:23;2.07;;;1.47;;
12042;SDS011;6082;49.306;12.862;2022-12-29T15:20:53;1.73;;;1.57;;
12042;SDS011;6082;49.306;12.862;2022-12-29T15:23:20;2.27;;;1.60;;
12042;SDS011;6082;49.306;12.862;2022-12-29T15:25:48;2.60;;;1.53;;
12042;SDS011;6082;49.306;12.862;2022-12-29T15:28:19;5.27;;;2.47;;
12042;SDS011;6082;49.306;12.862;2022-12-29T15:30:50;7.97;;;3.57;;
12042;SDS011;6082;49.306;12.862;2022-12-29T15:33:20;4.30;;;2.20;;
12042;SDS011;6082;49.306;12.862;2022-12-29T15:35:51;3.20;;;1.90;;
12042;SDS011;6082;49.306;12.862;2022-12-29T15:38:28;2.53;;;1.70;;
12042;SDS011;6082;49.306;12.862;2022-12-29T15:40:56;3.10;;;2.10;;
12042;SDS011;6082;49.306;12.862;2022-12-29T15:43:28;4.70;;;2.43;;
12042;SDS011;6082;49.306;12.862;2022-12-29T15:45:56;5.63;;;2.83;;
12042;SDS011;6082;49.306;12.862;2022-12-29T15:48:24;9.27;;;5.37;;
12042;SDS011;6082;49.306;12.862;2022-12-29T15:50:50;5.63;;;2.90;;
12042;SDS011;6082;49.306;12.862;2022-12-29T15:53:19;4.13;;;3.07;;
12042;SDS011;6082;49.306;12.862;2022-12-29T15:55:50;3.80;;;3.20;;
12042;SDS011;6082;49.306;12.862;2022-12-29T15:58:23;3.43;;;2.40;;
12042;SDS011;6082;49.306;12.862;2022-12-29T16:00:57;5.43;;;2.80;;
12042;SDS011;6082;49.306;12.862;2022-12-29T16:03:24;3.33;;;2.23;;
12042;SDS011;6082;49.306;12.862;2022-12-29T16:05:53;3.97;;;2.20;;
12042;SDS011;6082;49.306;12.862;2022-12-29T16:10:49;3.57;;;2.40;;
12042;SDS011;6082;49.306;12.862;2022-12-29T16:13:34;2.57;;;1.90;;
12042;SDS011;6082;49.306;12.862;2022-12-29T16:16:06;3.53;;;2.20;;
12042;SDS011;6082;49.306;12.862;2022-12-29T16:18:34;1.93;;;1.33;;
12042;SDS011;6082;49.306;12.862;2022-12-29T16:21:02;4.33;;;1.87;;
12042;SDS011;6082;49.306;12.862;2022-12-29T16:23:29;3.33;;;1.80;;
12042;SDS011;6082;49.306;12.862;2022-12-29T16:25:57;2.53;;;1.83;;
12042;SDS011;6082;49.306;12.862;2022-12-29T16:28:30;5.67;;;2.47;;
12042;SDS011;6082;49.306;12.862;2022-12-29T16:31:05;4.93;;;3.27;;
12042;SDS011;6082;49.306;12.862;2022-12-29T16:33:45;6.00;;;2.30;;
12042;SDS011;6082;49.306;12.862;2022-12-29T16:36:25;5.47;;;2.80;;
12042;SDS011;6082;49.306;12.862;2022-12-29T16:39:15;4.83;;;3.10;;
12042;SDS011;6082;49.306;12.862;2022-12-29T16:41:43;5.10;;;2.70;;
12042;SDS011;6082;49.306;12.862;2022-12-29T16:44:19;7.67;;;2.30;;
12042;SDS011;6082;49.306;12.862;2022-12-29T16:47:03;6.00;;;2.80;;
12042;SDS011;6082;49.306;12.862;2022-12-29T16:49:33;6.57;;;4.90;;
12042;SDS011;6082;49.306;12.862;2022-12-29T16:52:00;7.17;;;4.60;;
12042;SDS011;6082;49.306;12.862;2022-12-29T16:54:30;6.30;;;4.03;;
12042;SDS011;6082;49.306;12.862;2022-12-29T16:56:58;6.17;;;3.73;;
12042;SDS011;6082;49.306;12.862;2022-12-29T16:59:30;5.40;;;3.40;;
12042;SDS011;6082;49.306;12.862;2022-12-29T17:01:58;5.20;;;2.70;;
12042;SDS011;6082;49.306;12.862;2022-12-29T17:04:26;3.03;;;2.27;;
12042;SDS011;6082;49.306;12.862;2022-12-29T17:06:52;3.73;;;2.93;;
12042;SDS011;6082;49.306;12.862;2022-12-29T17:09:23;10.83;;;5.40;;
12042;SDS011;6082;49.306;12.862;2022-12-29T17:11:50;8.77;;;5.23;;
12042;SDS011;6082;49.306;12.862;2022-12-29T17:16:50;9.63;;;4.47;;
12042;SDS011;6082;49.306;12.862;2022-12-29T17:19:18;11.50;;;4.80;;
12042;SDS011;6082;49.306;12.862;2022-12-29T17:21:45;4.70;;;2.93;;